Time;durP1;ratioP1;P1;durP2;ratioP2;P2;SDS_P1;SDS_P2;PMS_P1;PMS_P2;Temp;Humidity;BMP_temperature;BMP_pressure;BME280_temperature;BME280_humidity;BME280_pressure;Samples;Min_cycle;Max_cycle;Signal;HPM_P1;HPM_P2
2022/09/27 00:00:36;;;;;;;8.85;3.80;;;;;;;;;;5111341;28;20411;-67
2022/09/27 00:03:06;;;;;;;9.18;3.67;;;;;;;;;;5111322;28;20044;-67
2022/09/27 00:05:37;;;;;;;9.98;4.28;;;;;;;;;;5111534;28;20530;-66
2022/09/27 00:08:07;;;;;;;11.05;4.65;;;;;;;;;;5111378;28;20065;-66
2022/09/27 00:10:38;;;;;;;10.70;4.22;;;;;;;;;;5111344;28;20051;-66
2022/09/27 00:13:08;;;;;;;8.88;4.22;;;;;;;;;;5111240;28;20043;-66
2022/09/27 00:15:40;;;;;;;11.80;4.50;;;;;;;;;;5111014;28;20050;-66
2022/09/27 00:18:10;;;;;;;8.18;3.92;;;;;;;;;;5053338;28;20064;-67
2022/09/27 00:20:40;;;;;;;10.13;3.92;;;;;;;;;;5060061;28;20164;-66
2022/09/27 00:23:10;;;;;;;8.52;4.22;;;;;;;;;;5050391;28;20091;-67
2022/09/27 00:25:40;;;;;;;12.38;5.03;;;;;;;;;;5050373;28;20060;-67
2022/09/27 00:28:12;;;;;;;9.57;4.20;;;;;;;;;;5001030;28;20540;-67
2022/09/27 00:30:43;;;;;;;11.80;4.55;;;;;;;;;;5050359;28;20507;-67
2022/09/27 00:33:13;;;;;;;10.85;4.93;;;;;;;;;;5050597;28;20408;-67
2022/09/27 00:35:43;;;;;;;8.35;4.72;;;;;;;;;;5050036;28;20532;-67
2022/09/27 00:38:14;;;;;;;10.00;4.00;;;;;;;;;;5034396;28;20120;-67
2022/09/27 00:40:45;;;;;;;11.48;4.13;;;;;;;;;;4977333;28;20053;-67
2022/09/27 00:43:21;;;;;;;8.98;3.85;;;;;;;;;;5004930;28;20073;-67
2022/09/27 00:46:01;;;;;;;8.73;3.72;;;;;;;;;;4988566;28;20658;-67
2022/09/27 00:48:36;;;;;;;7.95;3.70;;;;;;;;;;4980149;28;20518;-67
2022/09/27 00:51:08;;;;;;;8.98;3.78;;;;;;;;;;4974163;28;20046;-66
2022/09/27 00:53:45;;;;;;;8.57;4.07;;;;;;;;;;5009963;28;20050;-67
2022/09/27 00:56:21;;;;;;;9.35;4.13;;;;;;;;;;5027169;28;20067;-67
2022/09/27 00:59:14;;;;;;;10.07;4.38;;;;;;;;;;5016491;28;20052;-67
2022/09/27 01:01:45;;;;;;;10.18;3.83;;;;;;;;;;5049867;28;20061;-67
2022/09/27 01:04:21;;;;;;;10.77;4.13;;;;;;;;;;5049418;28;20057;-67
2022/09/27 01:06:51;;;;;;;9.75;4.13;;;;;;;;;;5009497;28;20490;-67
2022/09/27 01:09:23;;;;;;;8.55;4.00;;;;;;;;;;4989986;28;20058;-67
2022/09/27 01:12:08;;;;;;;8.90;3.83;;;;;;;;;;4957580;28;20053;-67
2022/09/27 01:15:01;;;;;;;8.25;3.85;;;;;;;;;;4932033;29;20136;-67
2022/09/27 01:17:43;;;;;;;9.05;3.97;;;;;;;;;;4932071;29;20073;-67
2022/09/27 01:20:51;;;;;;;9.77;3.67;;;;;;;;;;4916348;29;20052;-67
2022/09/27 01:23:45;;;;;;;10.45;3.42;;;;;;;;;;4951045;28;20051;-66
2022/09/27 01:26:42;;;;;;;8.40;3.47;;;;;;;;;;4912743;29;20425;-67
2022/09/27 01:29:28;;;;;;;10.93;3.85;;;;;;;;;;4913053;29;20072;-67
2022/09/27 01:32:19;;;;;;;10.35;4.00;;;;;;;;;;4898239;29;20063;-67
2022/09/27 01:35:22;;;;;;;9.85;3.72;;;;;;;;;;4912558;29;20056;-67
2022/09/27 01:38:36;;;;;;;12.18;3.50;;;;;;;;;;4884279;29;20052;-67
2022/09/27 01:41:35;;;;;;;7.90;3.85;;;;;;;;;;4856279;29;20057;-67
2022/09/27 01:44:45;;;;;;;9.55;3.90;;;;;;;;;;4837948;29;20538;-67
2022/09/27 01:47:29;;;;;;;12.10;3.78;;;;;;;;;;4830897;29;20054;-67
2022/09/27 01:50:28;;;;;;;9.63;3.92;;;;;;;;;;4852677;29;20503;-67
2022/09/27 01:53:44;;;;;;;10.65;3.88;;;;;;;;;;4885858;29;20103;-67
2022/09/27 01:56:31;;;;;;;11.82;4.25;;;;;;;;;;4846600;29;20065;-67
2022/09/27 01:59:28;;;;;;;11.80;4.03;;;;;;;;;;4856133;29;20056;-68
2022/09/27 02:02:32;;;;;;;6.82;3.70;;;;;;;;;;4838676;29;20554;-67
2022/09/27 02:05:27;;;;;;;10.57;4.15;;;;;;;;;;4820144;29;20050;-67
2022/09/27 02:08:14;;;;;;;13.02;4.55;;;;;;;;;;4837703;29;20050;-67
2022/09/27 02:10:52;;;;;;;11.00;4.45;;;;;;;;;;4802121;29;20050;-67
2022/09/27 02:13:31;;;;;;;11.15;4.60;;;;;;;;;;4786267;29;20063;-67
2022/09/27 02:16:40;;;;;;;9.95;4.30;;;;;;;;;;4798327;29;20054;-66
2022/09/27 02:19:26;;;;;;;14.82;4.78;;;;;;;;;;4825171;29;20050;-67
2022/09/27 02:21:59;;;;;;;12.40;4.68;;;;;;;;;;4849882;29;20053;-67
2022/09/27 02:24:42;;;;;;;15.65;5.43;;;;;;;;;;4862185;29;20049;-67
2022/09/27 02:27:55;;;;;;;9.45;4.43;;;;;;;;;;4861941;29;20437;-67
2022/09/27 02:30:31;;;;;;;15.52;4.50;;;;;;;;;;4830118;29;20054;-67
2022/09/27 02:33:15;;;;;;;11.20;4.82;;;;;;;;;;4833886;29;20590;-67
2022/09/27 02:35:47;;;;;;;11.95;4.80;;;;;;;;;;4854882;29;20054;-67
2022/09/27 02:38:17;;;;;;;11.73;4.40;;;;;;;;;;4828173;29;20057;-67
2022/09/27 02:40:47;;;;;;;12.20;4.97;;;;;;;;;;4843502;29;20061;-66
2022/09/27 02:43:20;;;;;;;12.30;5.13;;;;;;;;;;4858612;29;20050;-66
2022/09/27 02:46:20;;;;;;;12.25;4.63;;;;;;;;;;4852034;29;20054;-67
2022/09/27 02:49:31;;;;;;;11.13;4.63;;;;;;;;;;4846466;29;20510;-67
2022/09/27 02:52:58;;;;;;;13.60;4.70;;;;;;;;;;4844023;29;20042;-66
2022/09/27 02:56:12;;;;;;;11.65;5.65;;;;;;;;;;4839295;29;20057;-67
2022/09/27 02:59:26;;;;;;;15.70;4.38;;;;;;;;;;4784738;29;20048;-67
2022/09/27 03:02:05;;;;;;;12.93;4.93;;;;;;;;;;4751747;29;20136;-67
2022/09/27 03:04:58;;;;;;;13.05;4.80;;;;;;;;;;4758334;30;20061;-66
2022/09/27 03:07:27;;;;;;;13.23;5.05;;;;;;;;;;4777902;29;20448;-66
2022/09/27 03:10:17;;;;;;;15.98;5.05;;;;;;;;;;4765091;30;20218;-67
2022/09/27 03:13:02;;;;;;;12.43;4.72;;;;;;;;;;4783753;29;20059;-67
2022/09/27 03:15:47;;;;;;;12.48;5.25;;;;;;;;;;4807276;29;20058;-66
2022/09/27 03:18:35;;;;;;;18.65;5.55;;;;;;;;;;4807517;29;20061;-67
2022/09/27 03:21:48;;;;;;;15.43;5.18;;;;;;;;;;4853041;29;20081;-66
2022/09/27 03:24:16;;;;;;;14.32;6.20;;;;;;;;;;4794790;29;20061;-66
2022/09/27 03:26:44;;;;;;;13.20;5.40;;;;;;;;;;4788699;30;20066;-67
2022/09/27 03:29:12;;;;;;;13.55;5.70;;;;;;;;;;4804069;29;20105;-66
2022/09/27 03:32:04;;;;;;;10.55;4.57;;;;;;;;;;4810557;29;20077;-67
2022/09/27 03:35:06;;;;;;;14.40;5.53;;;;;;;;;;4821969;29;20384;-66
2022/09/27 03:37:36;;;;;;;13.07;5.63;;;;;;;;;;4818642;29;20065;-66
2022/09/27 03:40:08;;;;;;;13.48;5.03;;;;;;;;;;4780008;30;20585;-66
2022/09/27 03:42:38;;;;;;;12.80;4.93;;;;;;;;;;4785591;30;20504;-66
2022/09/27 03:45:13;;;;;;;12.27;5.50;;;;;;;;;;4786073;30;20066;-66
2022/09/27 03:47:43;;;;;;;12.68;5.43;;;;;;;;;;4803849;29;20468;-66
2022/09/27 03:50:14;;;;;;;13.80;5.18;;;;;;;;;;4827418;29;20206;-67
2022/09/27 03:52:44;;;;;;;17.92;6.07;;;;;;;;;;4847959;29;20061;-67
2022/09/27 03:55:15;;;;;;;12.82;5.78;;;;;;;;;;4858374;29;20057;-67
2022/09/27 03:57:46;;;;;;;12.35;5.43;;;;;;;;;;4862664;29;20061;-66
2022/09/27 04:00:19;;;;;;;14.52;5.82;;;;;;;;;;4858215;29;20054;-67
2022/09/27 04:02:49;;;;;;;11.50;4.93;;;;;;;;;;4826596;29;21019;-66
2022/09/27 04:05:27;;;;;;;16.20;5.85;;;;;;;;;;4841430;29;20054;-67
2022/09/27 04:08:05;;;;;;;18.42;5.97;;;;;;;;;;4858120;29;20065;-67
2022/09/27 04:10:35;;;;;;;12.65;5.25;;;;;;;;;;4936773;28;20385;-67
2022/09/27 04:13:06;;;;;;;14.65;5.53;;;;;;;;;;4932899;29;20059;-67
2022/09/27 04:15:43;;;;;;;13.75;5.13;;;;;;;;;;4933064;29;20047;-67
2022/09/27 04:18:22;;;;;;;15.35;5.88;;;;;;;;;;4919637;29;20052;-66
2022/09/27 04:21:08;;;;;;;13.00;5.40;;;;;;;;;;4898669;29;20111;-66
2022/09/27 04:23:45;;;;;;;11.48;5.40;;;;;;;;;;4899148;29;20401;-66
2022/09/27 04:26:19;;;;;;;11.05;5.47;;;;;;;;;;4932909;29;20382;-66
2022/09/27 04:29:02;;;;;;;11.90;5.68;;;;;;;;;;4932919;29;20432;-67
2022/09/27 04:31:37;;;;;;;13.52;5.63;;;;;;;;;;4932788;29;20048;-66
2022/09/27 04:37:24;;;;;;;14.95;6.00;;;;;;;;;;4906876;29;20051;-66
2022/09/27 04:40:01;;;;;;;16.63;5.68;;;;;;;;;;4928487;29;20090;-67
2022/09/27 04:42:33;;;;;;;15.40;5.30;;;;;;;;;;4913699;29;20052;-67
2022/09/27 04:45:04;;;;;;;14.20;5.55;;;;;;;;;;4932503;29;20060;-66
2022/09/27 04:47:35;;;;;;;18.35;5.25;;;;;;;;;;4913531;29;20044;-66
2022/09/27 04:50:05;;;;;;;12.00;5.15;;;;;;;;;;4901852;29;20069;-66
2022/09/27 04:52:36;;;;;;;12.25;5.68;;;;;;;;;;4872723;29;20061;-66
2022/09/27 04:55:07;;;;;;;14.50;5.30;;;;;;;;;;4871747;29;20080;-67
2022/09/27 04:57:38;;;;;;;14.02;5.53;;;;;;;;;;4894545;29;20056;-66
2022/09/27 05:00:10;;;;;;;10.90;5.22;;;;;;;;;;4923595;29;20520;-67
2022/09/27 05:02:43;;;;;;;13.00;5.47;;;;;;;;;;4928646;29;20052;-66
2022/09/27 05:05:33;;;;;;;13.90;5.30;;;;;;;;;;4907457;29;20048;-66
2022/09/27 05:08:05;;;;;;;11.77;5.25;;;;;;;;;;4907982;29;20707;-66
2022/09/27 05:10:55;;;;;;;11.98;5.47;;;;;;;;;;4875915;29;20079;-66
2022/09/27 05:13:26;;;;;;;13.68;5.63;;;;;;;;;;4856952;29;21119;-66
2022/09/27 05:16:03;;;;;;;15.52;5.22;;;;;;;;;;4875503;29;20510;-67
2022/09/27 05:18:48;;;;;;;12.02;5.10;;;;;;;;;;4821019;29;20110;-67
2022/09/27 05:21:36;;;;;;;11.75;5.40;;;;;;;;;;4856991;29;20057;-67
2022/09/27 05:24:07;;;;;;;12.80;5.65;;;;;;;;;;4857438;29;20061;-67
2022/09/27 05:26:37;;;;;;;13.13;5.43;;;;;;;;;;4875791;29;20053;-67
2022/09/27 05:29:07;;;;;;;11.70;5.28;;;;;;;;;;4875243;29;20499;-67
2022/09/27 05:31:39;;;;;;;10.35;5.57;;;;;;;;;;4863148;29;20057;-67
2022/09/27 05:34:10;;;;;;;17.02;5.35;;;;;;;;;;4865178;29;20056;-67
2022/09/27 05:36:49;;;;;;;14.15;6.07;;;;;;;;;;4874051;29;20061;-66
2022/09/27 05:39:19;;;;;;;15.20;5.75;;;;;;;;;;4874197;29;20073;-67
2022/09/27 05:41:49;;;;;;;12.38;5.85;;;;;;;;;;4912591;29;20055;-67
2022/09/27 05:44:27;;;;;;;14.45;6.82;;;;;;;;;;4927484;29;20508;-67
2022/09/27 05:47:04;;;;;;;12.30;5.97;;;;;;;;;;4863521;29;20056;-67
2022/09/27 05:49:36;;;;;;;13.65;5.82;;;;;;;;;;4893825;29;20052;-67
2022/09/27 05:52:08;;;;;;;15.05;5.93;;;;;;;;;;4873960;29;20434;-67
2022/09/27 05:54:44;;;;;;;12.05;5.53;;;;;;;;;;4911425;29;20413;-67
2022/09/27 05:57:16;;;;;;;16.10;6.63;;;;;;;;;;4912266;29;20623;-67
2022/09/27 05:59:51;;;;;;;13.38;6.38;;;;;;;;;;4912159;29;20063;-67
2022/09/27 06:02:22;;;;;;;18.17;6.22;;;;;;;;;;4907184;29;20072;-67
2022/09/27 06:04:52;;;;;;;13.73;6.18;;;;;;;;;;4894125;29;20052;-66
2022/09/27 06:07:43;;;;;;;14.35;6.22;;;;;;;;;;4845431;29;20056;-66
2022/09/27 06:10:37;;;;;;;16.02;6.45;;;;;;;;;;4856336;29;20065;-67
2022/09/27 06:13:14;;;;;;;13.45;6.30;;;;;;;;;;4837637;29;20054;-67
2022/09/27 06:15:46;;;;;;;14.57;6.68;;;;;;;;;;4859095;29;20063;-67
2022/09/27 06:18:17;;;;;;;14.32;6.50;;;;;;;;;;4842902;29;20103;-67
2022/09/27 06:20:50;;;;;;;13.30;6.18;;;;;;;;;;4833953;29;20054;-67
2022/09/27 06:23:22;;;;;;;13.10;5.63;;;;;;;;;;4819995;29;20122;-68
2022/09/27 06:25:54;;;;;;;20.10;6.38;;;;;;;;;;4856011;29;20211;-67
2022/09/27 06:28:39;;;;;;;16.27;6.38;;;;;;;;;;4856017;29;20449;-66
2022/09/27 06:31:11;;;;;;;14.90;6.20;;;;;;;;;;4837589;29;20065;-67
2022/09/27 06:34:01;;;;;;;14.13;6.07;;;;;;;;;;4858296;29;20057;-67
2022/09/27 06:36:32;;;;;;;14.57;6.20;;;;;;;;;;4874877;29;20089;-67
2022/09/27 06:39:03;;;;;;;16.23;6.13;;;;;;;;;;4893090;29;20053;-67
2022/09/27 06:41:56;;;;;;;13.73;5.78;;;;;;;;;;4893522;29;20057;-68
2022/09/27 06:44:48;;;;;;;13.60;6.38;;;;;;;;;;4878807;29;20054;-68
2022/09/27 06:47:37;;;;;;;14.48;6.13;;;;;;;;;;4856245;29;20054;-67
2022/09/27 06:50:24;;;;;;;13.48;7.20;;;;;;;;;;4856145;29;20080;-68
2022/09/27 06:52:55;;;;;;;12.65;6.43;;;;;;;;;;4861299;29;20453;-67
2022/09/27 06:55:26;;;;;;;12.48;6.05;;;;;;;;;;4850473;29;20054;-67
2022/09/27 07:01:06;;;;;;;15.65;6.18;;;;;;;;;;4836225;29;20049;-67
2022/09/27 07:03:54;;;;;;;15.90;5.95;;;;;;;;;;4876896;29;20053;-67
2022/09/27 07:06:49;;;;;;;15.25;6.30;;;;;;;;;;4896727;29;20048;-67
2022/09/27 07:09:24;;;;;;;18.88;6.47;;;;;;;;;;4882829;29;20053;-67
2022/09/27 07:11:56;;;;;;;14.20;6.05;;;;;;;;;;4877955;29;20060;-67
2022/09/27 07:14:27;;;;;;;14.57;6.28;;;;;;;;;;4874179;29;20110;-67
2022/09/27 07:16:57;;;;;;;18.02;6.68;;;;;;;;;;4851387;29;20521;-67
2022/09/27 07:19:34;;;;;;;14.20;5.82;;;;;;;;;;4840503;29;20053;-67
2022/09/27 07:22:05;;;;;;;14.95;6.07;;;;;;;;;;4812672;29;20050;-68
2022/09/27 07:24:36;;;;;;;14.88;5.97;;;;;;;;;;4840257;29;20483;-67
2022/09/27 07:27:06;;;;;;;13.30;5.93;;;;;;;;;;4837105;29;20057;-67
2022/09/27 07:29:36;;;;;;;15.05;5.97;;;;;;;;;;4840235;29;20058;-67
2022/09/27 07:32:08;;;;;;;13.98;5.63;;;;;;;;;;4840151;29;20054;-67
2022/09/27 07:34:39;;;;;;;17.50;6.05;;;;;;;;;;4877058;29;20059;-67
2022/09/27 07:37:09;;;;;;;11.65;5.15;;;;;;;;;;4874562;29;20074;-67
2022/09/27 07:39:41;;;;;;;13.25;5.60;;;;;;;;;;4873099;29;20049;-67
2022/09/27 07:42:11;;;;;;;14.27;6.15;;;;;;;;;;4825055;29;20061;-68
2022/09/27 07:44:46;;;;;;;14.98;5.88;;;;;;;;;;4839856;29;20049;-67
2022/09/27 07:47:38;;;;;;;15.68;5.97;;;;;;;;;;4858703;29;20414;-68
2022/09/27 07:50:21;;;;;;;15.75;5.57;;;;;;;;;;4873160;29;20073;-67
2022/09/27 07:52:58;;;;;;;12.43;5.63;;;;;;;;;;4860373;29;20504;-67
2022/09/27 07:55:28;;;;;;;17.48;6.18;;;;;;;;;;4840179;29;20435;-67
2022/09/27 07:58:12;;;;;;;12.95;5.65;;;;;;;;;;4844155;29;20078;-67
2022/09/27 08:00:43;;;;;;;12.57;5.40;;;;;;;;;;4840258;29;20520;-68
2022/09/27 08:03:16;;;;;;;11.65;5.47;;;;;;;;;;4843959;29;20058;-67
2022/09/27 08:05:48;;;;;;;15.55;5.43;;;;;;;;;;4873141;29;20049;-68
2022/09/27 08:08:18;;;;;;;14.77;5.35;;;;;;;;;;4893661;29;20055;-67
2022/09/27 08:10:50;;;;;;;13.80;6.03;;;;;;;;;;4878033;29;20095;-67
2022/09/27 08:13:21;;;;;;;18.65;6.20;;;;;;;;;;4876622;29;20052;-67
2022/09/27 08:15:53;;;;;;;12.93;5.35;;;;;;;;;;4845580;29;20055;-68
2022/09/27 08:18:24;;;;;;;14.65;6.25;;;;;;;;;;4876271;29;20068;-67
2022/09/27 08:20:58;;;;;;;10.93;5.47;;;;;;;;;;4877138;29;20065;-67
2022/09/27 08:23:30;;;;;;;11.35;5.35;;;;;;;;;;4890013;29;20064;-67
2022/09/27 08:26:29;;;;;;;13.55;5.88;;;;;;;;;;4894689;29;20056;-68
2022/09/27 08:29:11;;;;;;;14.07;5.32;;;;;;;;;;4906176;29;20529;-67
2022/09/27 08:31:53;;;;;;;10.85;5.10;;;;;;;;;;4914045;29;20505;-67
2022/09/27 08:34:24;;;;;;;12.73;5.38;;;;;;;;;;4929879;29;20052;-67
2022/09/27 08:36:54;;;;;;;14.90;5.85;;;;;;;;;;4916729;29;20051;-67
2022/09/27 08:39:25;;;;;;;17.00;5.10;;;;;;;;;;4951884;29;20055;-67
2022/09/27 08:42:20;;;;;;;13.98;5.20;;;;;;;;;;4899473;29;20060;-67
2022/09/27 08:44:53;;;;;;;15.32;6.03;;;;;;;;;;4898500;29;20059;-67
2022/09/27 08:47:39;;;;;;;14.07;5.85;;;;;;;;;;4893434;29;20517;-67
2022/09/27 08:50:43;;;;;;;12.55;5.28;;;;;;;;;;4865391;29;20061;-67
2022/09/27 08:53:22;;;;;;;11.75;5.22;;;;;;;;;;4894837;29;20052;-67
2022/09/27 08:55:58;;;;;;;14.68;5.68;;;;;;;;;;4932408;29;20059;-67
2022/09/27 08:58:48;;;;;;;13.18;5.10;;;;;;;;;;4932376;29;20056;-67
2022/09/27 09:01:24;;;;;;;13.15;5.38;;;;;;;;;;4916452;29;20060;-67
2022/09/27 09:04:11;;;;;;;12.82;5.20;;;;;;;;;;4926633;29;20052;-67
2022/09/27 09:06:58;;;;;;;13.73;6.40;;;;;;;;;;4913391;29;20056;-67
2022/09/27 09:09:30;;;;;;;11.93;5.28;;;;;;;;;;4932008;29;20448;-67
2022/09/27 09:12:47;;;;;;;12.32;5.45;;;;;;;;;;4932146;28;20067;-67
2022/09/27 09:15:55;;;;;;;13.98;5.88;;;;;;;;;;4914402;29;20507;-68
2022/09/27 09:18:58;;;;;;;11.43;5.72;;;;;;;;;;4950989;29;20050;-67
2022/09/27 09:22:27;;;;;;;11.48;5.00;;;;;;;;;;4912834;29;20052;-67
2022/09/27 09:25:10;;;;;;;14.80;5.70;;;;;;;;;;4901799;29;20126;-67
2022/09/27 09:28:18;;;;;;;13.50;5.68;;;;;;;;;;4911798;29;20520;-67
2022/09/27 09:31:13;;;;;;;17.25;6.43;;;;;;;;;;4923022;29;20501;-67
2022/09/27 09:33:51;;;;;;;13.80;6.13;;;;;;;;;;4913057;29;20063;-67
2022/09/27 09:36:31;;;;;;;13.90;6.20;;;;;;;;;;4859593;29;20053;-67
2022/09/27 09:39:10;;;;;;;13.52;5.80;;;;;;;;;;4875133;29;20053;-67
2022/09/27 09:42:11;;;;;;;14.18;5.53;;;;;;;;;;4875280;29;20136;-67
2022/09/27 09:44:47;;;;;;;12.65;5.68;;;;;;;;;;4819816;29;20065;-67
2022/09/27 09:47:26;;;;;;;13.77;5.63;;;;;;;;;;4789331;29;20069;-68
2022/09/27 09:50:02;;;;;;;14.55;6.10;;;;;;;;;;4827714;29;20050;-67
2022/09/27 09:52:47;;;;;;;13.75;6.05;;;;;;;;;;4838134;29;20081;-67
2022/09/27 09:55:23;;;;;;;14.52;5.82;;;;;;;;;;4837628;29;20074;-67
2022/09/27 09:58:05;;;;;;;15.93;7.25;;;;;;;;;;4860313;29;20541;-67
2022/09/27 10:00:44;;;;;;;18.65;6.65;;;;;;;;;;4851886;29;20058;-67
2022/09/27 10:03:15;;;;;;;15.25;6.20;;;;;;;;;;4842328;29;20565;-67
2022/09/27 10:05:46;;;;;;;15.45;6.68;;;;;;;;;;4837873;29;20069;-67
2022/09/27 10:08:21;;;;;;;14.63;6.70;;;;;;;;;;4830276;29;20070;-67
2022/09/27 10:11:28;;;;;;;13.60;6.68;;;;;;;;;;4801504;29;20540;-67
2022/09/27 10:14:12;;;;;;;16.95;6.55;;;;;;;;;;4811121;29;20108;-67
2022/09/27 10:17:03;;;;;;;17.05;7.10;;;;;;;;;;4792177;29;21121;-67
2022/09/27 10:19:36;;;;;;;13.70;6.13;;;;;;;;;;4791242;29;20539;-67
2022/09/27 10:22:31;;;;;;;12.50;5.82;;;;;;;;;;4788756;29;20389;-67
2022/09/27 10:25:09;;;;;;;18.40;6.55;;;;;;;;;;4829281;29;20059;-67
2022/09/27 10:27:47;;;;;;;15.38;6.82;;;;;;;;;;4786835;29;20056;-67
2022/09/27 10:30:30;;;;;;;17.38;6.97;;;;;;;;;;4791199;29;20066;-68
2022/09/27 10:33:18;;;;;;;17.83;7.60;;;;;;;;;;4793357;29;20055;-67
2022/09/27 10:35:53;;;;;;;32.75;14.27;;;;;;;;;;4819474;29;20059;-68
2022/09/27 10:38:36;;;;;;;21.70;9.25;;;;;;;;;;4792329;29;20055;-68
2022/09/27 10:41:27;;;;;;;22.85;9.63;;;;;;;;;;4804721;29;20062;-68
2022/09/27 10:44:31;;;;;;;23.88;9.10;;;;;;;;;;4767210;29;20408;-67
2022/09/27 10:47:25;;;;;;;19.40;8.13;;;;;;;;;;4840573;29;20062;-67
2022/09/27 10:50:32;;;;;;;15.15;7.18;;;;;;;;;;4860104;29;20045;-68
2022/09/27 10:53:27;;;;;;;16.95;6.47;;;;;;;;;;4852659;29;20582;-68
2022/09/27 10:56:03;;;;;;;17.60;7.88;;;;;;;;;;4840904;29;20054;-68
2022/09/27 10:58:37;;;;;;;17.40;7.47;;;;;;;;;;4877784;29;20080;-68
2022/09/27 11:01:13;;;;;;;18.80;7.95;;;;;;;;;;4859720;29;20652;-69
2022/09/27 11:04:04;;;;;;;18.52;7.40;;;;;;;;;;4829466;29;21065;-68
2022/09/27 11:06:39;;;;;;;20.05;7.85;;;;;;;;;;4852461;29;20057;-68
2022/09/27 11:09:25;;;;;;;23.00;7.60;;;;;;;;;;4833522;29;20555;-68
2022/09/27 11:12:15;;;;;;;12.98;6.50;;;;;;;;;;4858545;29;20058;-69
2022/09/27 11:14:55;;;;;;;13.25;6.45;;;;;;;;;;4859353;29;20065;-69
2022/09/27 11:18:10;;;;;;;14.63;6.57;;;;;;;;;;4809795;29;20062;-69
2022/09/27 11:20:45;;;;;;;13.98;6.80;;;;;;;;;;4822175;29;20145;-69
2022/09/27 11:23:16;;;;;;;17.10;7.25;;;;;;;;;;4786055;29;20051;-70
2022/09/27 11:26:31;;;;;;;17.67;8.43;;;;;;;;;;4758989;29;20509;-69
2022/09/27 11:29:12;;;;;;;15.73;7.82;;;;;;;;;;4768093;30;20063;-69
2022/09/27 11:32:12;;;;;;;16.65;7.75;;;;;;;;;;4734777;30;20071;-69
2022/09/27 11:35:03;;;;;;;17.58;8.02;;;;;;;;;;4780498;29;20056;-70
2022/09/27 11:37:55;;;;;;;20.17;8.27;;;;;;;;;;4767878;30;20059;-70
2022/09/27 11:40:56;;;;;;;23.60;9.30;;;;;;;;;;4803599;29;20061;-69
2022/09/27 11:43:42;;;;;;;17.13;8.95;;;;;;;;;;4800953;29;20063;-70
2022/09/27 11:46:36;;;;;;;19.73;8.60;;;;;;;;;;4800818;29;20479;-72
2022/09/27 11:49:38;;;;;;;19.83;8.93;;;;;;;;;;4838309;29;20058;-69
2022/09/27 11:52:43;;;;;;;17.33;9.07;;;;;;;;;;4830747;29;20062;-69
2022/09/27 11:55:55;;;;;;;18.60;8.50;;;;;;;;;;4855103;29;20076;-69
2022/09/27 11:58:41;;;;;;;16.25;8.90;;;;;;;;;;4858449;29;20395;-69
2022/09/27 12:01:24;;;;;;;16.02;8.90;;;;;;;;;;4847035;29;20058;-70
2022/09/27 12:03:57;;;;;;;16.75;8.43;;;;;;;;;;4858099;29;20167;-68
2022/09/27 12:06:51;;;;;;;24.95;10.73;;;;;;;;;;4884491;29;20132;-69
2022/09/27 12:09:27;;;;;;;13.50;7.50;;;;;;;;;;4857960;29;20054;-69
2022/09/27 12:12:13;;;;;;;20.15;10.73;;;;;;;;;;4821590;29;20057;-68
2022/09/27 12:14:58;;;;;;;21.23;7.93;;;;;;;;;;4847864;29;20210;-69
2022/09/27 12:17:42;;;;;;;17.40;8.07;;;;;;;;;;4837481;29;20475;-68
2022/09/27 12:20:26;;;;;;;17.63;9.70;;;;;;;;;;4837427;29;20042;-69
2022/09/27 12:22:58;;;;;;;17.85;9.18;;;;;;;;;;4857858;29;20057;-68
2022/09/27 12:25:42;;;;;;;;;;;;;;;;;;4839941;29;20423;-70
2022/09/27 12:28:39;;;;;;;22.10;10.40;;;;;;;;;;4825031;29;20309;-69
2022/09/27 12:31:50;;;;;;;17.65;8.73;;;;;;;;;;4872215;29;20054;-70
2022/09/27 12:34:30;;;;;;;17.10;8.32;;;;;;;;;;4857528;29;20062;-69
2022/09/27 12:37:31;;;;;;;12.75;5.50;;;;;;;;;;4839186;29;20058;-70
2022/09/27 12:40:05;;;;;;;10.23;5.07;;;;;;;;;;4805848;29;20061;-70
2022/09/27 12:42:42;;;;;;;12.02;6.78;;;;;;;;;;4852872;29;20061;-70
2022/09/27 12:45:55;;;;;;;9.63;5.10;;;;;;;;;;4894520;29;20064;-68
2022/09/27 12:49:04;;;;;;;13.75;7.25;;;;;;;;;;4913479;29;20052;-70
2022/09/27 12:51:56;;;;;;;15.52;8.68;;;;;;;;;;4863556;29;20059;-70
2022/09/27 12:55:02;;;;;;;22.00;10.07;;;;;;;;;;4891594;29;20057;-71
2022/09/27 12:58:10;;;;;;;22.00;10.90;;;;;;;;;;4882483;29;20065;-69
2022/09/27 13:00:52;;;;;;;17.13;9.05;;;;;;;;;;4921764;29;20056;-69
2022/09/27 13:03:32;;;;;;;15.20;8.85;;;;;;;;;;4888514;29;20057;-69
2022/09/27 13:06:21;;;;;;;20.52;10.50;;;;;;;;;;4908908;29;20505;-70
2022/09/27 13:09:19;;;;;;;17.60;9.32;;;;;;;;;;4897352;29;20044;-69
2022/09/27 13:12:09;;;;;;;20.33;9.35;;;;;;;;;;4925070;29;20060;-70
2022/09/27 13:15:01;;;;;;;19.60;9.50;;;;;;;;;;4913637;29;20080;-68
2022/09/27 13:17:41;;;;;;;22.65;11.88;;;;;;;;;;4896930;29;20060;-71
2022/09/27 13:20:36;;;;;;;14.95;6.93;;;;;;;;;;4883097;29;20067;-69
2022/09/27 13:23:28;;;;;;;15.23;6.80;;;;;;;;;;4901494;29;20053;-70
2022/09/27 13:26:02;;;;;;;17.20;10.05;;;;;;;;;;4885054;29;20067;-69
2022/09/27 13:28:51;;;;;;;18.75;8.27;;;;;;;;;;4858701;29;20046;-69
2022/09/27 13:31:53;;;;;;;14.35;7.50;;;;;;;;;;4852306;29;20061;-70
2022/09/27 13:34:42;;;;;;;14.38;8.13;;;;;;;;;;4894023;29;20052;-70
2022/09/27 13:37:28;;;;;;;13.77;7.55;;;;;;;;;;4956102;28;20051;-69
2022/09/27 13:40:15;;;;;;;13.50;6.63;;;;;;;;;;4969868;28;20054;-70
2022/09/27 13:43:16;;;;;;;17.23;8.35;;;;;;;;;;4951429;28;20059;-70
2022/09/27 13:46:00;;;;;;;37.17;18.15;;;;;;;;;;4950728;28;20088;-70
2022/09/27 13:48:57;;;;;;;15.45;8.13;;;;;;;;;;4927721;29;20128;-69
2022/09/27 13:51:49;;;;;;;17.75;10.27;;;;;;;;;;4889147;29;20053;-69
2022/09/27 13:54:50;;;;;;;14.77;8.32;;;;;;;;;;4856132;29;20065;-69
2022/09/27 13:57:41;;;;;;;11.93;6.97;;;;;;;;;;4850316;29;20058;-68
2022/09/27 14:00:30;;;;;;;14.90;7.72;;;;;;;;;;4844941;29;20103;-69
2022/09/27 14:03:06;;;;;;;17.88;10.15;;;;;;;;;;4860083;29;20448;-70
2022/09/27 14:05:50;;;;;;;12.30;6.57;;;;;;;;;;4874843;29;20068;-70
2022/09/27 14:08:35;;;;;;;16.92;8.73;;;;;;;;;;4871000;29;20425;-70
2022/09/27 14:11:32;;;;;;;15.57;8.02;;;;;;;;;;4845639;29;20062;-70
2022/09/27 14:14:04;;;;;;;15.27;7.22;;;;;;;;;;4800341;29;20062;-70
2022/09/27 14:16:47;;;;;;;13.73;7.38;;;;;;;;;;4813937;29;20500;-69
2022/09/27 14:19:26;;;;;;;13.73;6.88;;;;;;;;;;4801198;29;20061;-70
2022/09/27 14:21:58;;;;;;;15.05;8.48;;;;;;;;;;4815927;29;20050;-70
2022/09/27 14:24:45;;;;;;;13.05;7.20;;;;;;;;;;4801335;29;20070;-69
2022/09/27 14:27:34;;;;;;;18.58;7.20;;;;;;;;;;4828031;29;20058;-70
2022/09/27 14:30:45;;;;;;;16.20;6.90;;;;;;;;;;4794009;29;20063;-68
2022/09/27 14:33:31;;;;;;;14.18;6.10;;;;;;;;;;4780641;29;20502;-69
2022/09/27 14:39:21;;;;;;;14.55;6.50;;;;;;;;;;4819280;29;20058;-69
2022/09/27 14:41:54;;;;;;;17.13;7.30;;;;;;;;;;4789260;29;20421;-70
2022/09/27 14:44:25;;;;;;;15.50;6.72;;;;;;;;;;4794576;29;20537;-70
2022/09/27 14:47:15;;;;;;;12.60;6.40;;;;;;;;;;4796557;29;20052;-69
2022/09/27 14:49:54;;;;;;;10.45;6.10;;;;;;;;;;4765653;30;20060;-71
2022/09/27 14:52:28;;;;;;;11.73;6.65;;;;;;;;;;4841385;29;20064;-70
2022/09/27 14:55:07;;;;;;;12.05;6.88;;;;;;;;;;4912372;29;20079;-72
2022/09/27 14:57:40;;;;;;;13.40;6.43;;;;;;;;;;4913496;29;20048;-71
2022/09/27 15:00:24;;;;;;;13.05;7.82;;;;;;;;;;4931353;29;20068;-70
2022/09/27 15:02:57;;;;;;;14.93;6.70;;;;;;;;;;4984966;28;20125;-69
2022/09/27 15:05:33;;;;;;;14.05;7.60;;;;;;;;;;4989071;28;20050;-68
2022/09/27 15:08:05;;;;;;;14.85;7.40;;;;;;;;;;5020705;28;20065;-67
2022/09/27 15:10:37;;;;;;;15.18;8.00;;;;;;;;;;5028269;28;20061;-69
2022/09/27 15:13:12;;;;;;;13.43;7.18;;;;;;;;;;4995714;28;20049;-68
2022/09/27 15:15:42;;;;;;;13.10;7.07;;;;;;;;;;5028379;28;20053;-68
2022/09/27 15:18:33;;;;;;;15.55;8.15;;;;;;;;;;5028371;28;20057;-67
2022/09/27 15:21:06;;;;;;;12.95;7.22;;;;;;;;;;5074780;28;20043;-67
2022/09/27 15:23:40;;;;;;;;;;;;;;;;;;5089750;28;20044;-67
2022/09/27 15:26:22;;;;;;;14.20;7.55;;;;;;;;;;5092125;28;19924;-67
2022/09/27 15:28:52;;;;;;;16.90;7.90;;;;;;;;;;5058807;28;20059;-67
2022/09/27 15:31:31;;;;;;;13.70;7.50;;;;;;;;;;5094295;28;20047;-68
2022/09/27 15:34:05;;;;;;;16.08;7.70;;;;;;;;;;5094400;28;20043;-67
2022/09/27 15:36:59;;;;;;;15.60;8.07;;;;;;;;;;5092064;28;20047;-67
2022/09/27 15:39:35;;;;;;;16.42;8.18;;;;;;;;;;5094409;28;20404;-67
2022/09/27 15:42:12;;;;;;;13.38;7.38;;;;;;;;;;5094323;28;20052;-67
2022/09/27 15:44:47;;;;;;;13.95;7.82;;;;;;;;;;5091834;28;20044;-67
2022/09/27 15:47:36;;;;;;;13.15;7.60;;;;;;;;;;5094448;28;20047;-68
2022/09/27 15:50:15;;;;;;;14.25;7.55;;;;;;;;;;5093799;28;20043;-68
2022/09/27 15:52:52;;;;;;;13.32;7.93;;;;;;;;;;5094010;28;20044;-68
2022/09/27 15:55:26;;;;;;;14.52;7.90;;;;;;;;;;5074912;28;20052;-67
2022/09/27 15:58:00;;;;;;;15.18;8.38;;;;;;;;;;5091364;28;20059;-68
2022/09/27 16:00:31;;;;;;;12.95;7.40;;;;;;;;;;5091486;28;20059;-68
2022/09/27 16:03:02;;;;;;;18.50;7.72;;;;;;;;;;5073553;28;20530;-68
2022/09/27 16:05:32;;;;;;;16.88;9.48;;;;;;;;;;5091184;28;20036;-68
2022/09/27 16:08:02;;;;;;;20.98;9.57;;;;;;;;;;5040996;28;20622;-68